createdAt,value
2019-03-31T00:01:26.350Z,20.70
2019-03-31T00:03:27.728Z,21.93
2019-03-31T00:05:29.109Z,20.37
2019-03-31T00:07:30.497Z,19.73
2019-03-31T00:09:31.902Z,19.73
2019-03-31T00:11:33.252Z,21.13
2019-03-31T00:13:34.622Z,19.03
2019-03-31T00:15:36.035Z,20.87
2019-03-31T00:17:37.402Z,20.13
2019-03-31T00:19:38.804Z,20.00
2019-03-31T00:21:40.187Z,20.23
2019-03-31T00:23:41.570Z,20.77
2019-03-31T00:25:44.911Z,19.60
2019-03-31T00:27:46.282Z,20.53
2019-03-31T00:29:47.649Z,19.73
2019-03-31T00:31:49.059Z,20.53
2019-03-31T00:33:50.416Z,20.77
2019-03-31T00:35:51.826Z,20.77
2019-03-31T00:37:53.230Z,20.63
2019-03-31T00:39:54.604Z,18.70
2019-03-31T00:41:55.976Z,20.90
2019-03-31T00:43:57.363Z,21.83
2019-03-31T00:45:58.821Z,20.37
2019-03-31T00:48:00.252Z,20.10
2019-03-31T00:50:01.624Z,23.87
2019-03-31T00:52:03.019Z,20.57
2019-03-31T00:54:04.438Z,19.73
2019-03-31T00:56:05.807Z,20.30
2019-03-31T00:58:07.275Z,20.80
2019-03-31T01:00:10.759Z,19.90
2019-03-31T01:02:16.240Z,20.90
2019-03-31T01:04:19.901Z,21.00
2019-03-31T01:06:21.706Z,19.50
2019-03-31T01:08:25.719Z,20.37
2019-03-31T01:10:28.889Z,20.50
2019-03-31T01:12:30.360Z,20.37
2019-03-31T01:14:32.060Z,22.10
2019-03-31T01:16:33.549Z,22.07
2019-03-31T01:18:34.999Z,22.50
2019-03-31T01:20:36.438Z,19.70
2019-03-31T01:22:37.797Z,21.47
2019-03-31T01:24:39.205Z,20.80
2019-03-31T01:26:40.608Z,20.57
2019-03-31T01:28:42.085Z,20.93
2019-03-31T01:30:43.584Z,20.97
2019-03-31T01:32:44.966Z,20.23
2019-03-31T01:34:46.345Z,23.10
2019-03-31T01:36:47.731Z,21.70
2019-03-31T01:38:49.247Z,23.80
2019-03-31T01:40:50.738Z,21.07
2019-03-31T01:42:52.128Z,23.57
2019-03-31T01:44:53.498Z,22.23
2019-03-31T01:46:54.851Z,23.30
2019-03-31T01:48:56.436Z,22.37
2019-03-31T01:50:57.809Z,21.07
2019-03-31T01:52:59.187Z,22.77
2019-03-31T01:55:00.591Z,23.30
2019-03-31T01:57:02.081Z,23.93
2019-03-31T01:59:03.486Z,23.60
2019-03-31T02:01:07.344Z,23.63
2019-03-31T02:03:08.835Z,22.83
2019-03-31T02:05:10.232Z,23.50
2019-03-31T02:07:11.746Z,25.53
2019-03-31T02:09:13.155Z,24.17
2019-03-31T02:11:14.578Z,24.23
2019-03-31T02:13:15.939Z,22.23
2019-03-31T02:15:17.316Z,24.20
2019-03-31T02:17:19.121Z,23.70
2019-03-31T02:19:20.546Z,26.10
2019-03-31T02:21:21.913Z,26.73
2019-03-31T02:23:23.318Z,27.00
2019-03-31T02:25:24.806Z,27.53
2019-03-31T02:27:26.216Z,25.70
2019-03-31T02:29:27.624Z,24.97
2019-03-31T02:31:29.079Z,26.57
2019-03-31T02:33:30.429Z,27.00
2019-03-31T02:35:31.856Z,27.03
2019-03-31T02:37:33.230Z,27.33
2019-03-31T02:39:34.676Z,28.87
2019-03-31T02:41:36.215Z,27.57
2019-03-31T02:43:37.587Z,26.83
2019-03-31T02:45:38.957Z,28.87
2019-03-31T02:47:40.380Z,28.70
2019-03-31T02:49:41.824Z,27.10
2019-03-31T02:51:43.234Z,28.50
2019-03-31T02:53:44.597Z,27.03
2019-03-31T02:55:46.152Z,27.40
2019-03-31T02:57:48.258Z,27.40
2019-03-31T02:59:50.342Z,25.50
2019-03-31T03:01:53.225Z,24.70
2019-03-31T03:03:54.810Z,24.67
2019-03-31T03:05:58.684Z,24.37
2019-03-31T03:08:00.458Z,24.93
2019-03-31T03:10:03.560Z,20.53
2019-03-31T03:12:08.346Z,22.50
2019-03-31T03:14:11.548Z,22.43
2019-03-31T03:16:17.721Z,21.30
2019-03-31T03:18:19.143Z,22.93
2019-03-31T03:20:20.640Z,21.20
2019-03-31T03:22:21.984Z,22.47
2019-03-31T03:24:23.393Z,21.00
2019-03-31T03:26:24.751Z,24.00
2019-03-31T03:28:26.099Z,23.30
2019-03-31T03:30:27.614Z,24.63
2019-03-31T03:32:29.133Z,25.30
2019-03-31T03:34:30.725Z,23.73
2019-03-31T03:36:32.172Z,24.93
2019-03-31T03:38:33.549Z,22.50
2019-03-31T03:40:34.923Z,21.70
2019-03-31T03:42:36.337Z,24.03
2019-03-31T03:44:37.692Z,25.13
2019-03-31T03:46:39.058Z,27.10
2019-03-31T03:48:40.441Z,26.60
2019-03-31T03:50:41.852Z,25.17
2019-03-31T03:52:43.324Z,31.37
2019-03-31T03:54:44.728Z,31.53
2019-03-31T03:56:46.096Z,31.87
2019-03-31T03:58:47.463Z,33.67
2019-03-31T04:00:48.878Z,30.67
2019-03-31T04:02:50.220Z,31.90
2019-03-31T04:04:51.608Z,34.80
2019-03-31T04:06:53.119Z,34.90
2019-03-31T04:08:54.478Z,35.40
2019-03-31T04:11:09.494Z,32.33
2019-03-31T04:13:11.207Z,32.07
2019-03-31T04:15:12.566Z,31.70
2019-03-31T04:17:13.958Z,34.40
2019-03-31T04:19:15.347Z,33.60
2019-03-31T04:21:16.800Z,33.63
2019-03-31T04:23:18.176Z,35.77
2019-03-31T04:25:19.552Z,34.10
2019-03-31T04:27:20.930Z,33.90
2019-03-31T04:29:22.301Z,32.30
2019-03-31T04:31:23.694Z,33.50
2019-03-31T04:33:25.050Z,32.40
2019-03-31T04:35:26.520Z,33.37
2019-03-31T04:37:27.899Z,34.50
2019-03-31T04:39:30.149Z,35.73
2019-03-31T04:41:31.539Z,32.90
2019-03-31T04:43:32.916Z,36.73
2019-03-31T04:45:35.022Z,37.00
2019-03-31T04:47:36.373Z,37.00
2019-03-31T04:49:37.742Z,37.87
2019-03-31T04:51:39.160Z,36.20
2019-03-31T04:53:40.518Z,34.97
2019-03-31T04:55:41.887Z,36.53
2019-03-31T04:57:43.448Z,35.20
2019-03-31T04:59:44.819Z,34.87
2019-03-31T05:01:46.167Z,33.83
2019-03-31T05:03:47.742Z,34.77
2019-03-31T05:05:49.124Z,35.67
2019-03-31T05:07:50.502Z,34.03
2019-03-31T05:09:51.908Z,32.60
2019-03-31T05:11:53.262Z,36.10
2019-03-31T05:13:54.642Z,34.00
2019-03-31T05:15:56.038Z,34.17
2019-03-31T05:17:57.442Z,31.83
2019-03-31T05:19:58.795Z,36.77
2019-03-31T05:22:00.196Z,38.03
2019-03-31T05:24:01.570Z,35.83
2019-03-31T05:26:02.917Z,39.33
2019-03-31T05:28:04.320Z,41.60
2019-03-31T05:30:05.987Z,42.20
2019-03-31T05:32:07.362Z,42.20
2019-03-31T05:34:18.993Z,44.30
2019-03-31T05:36:12.212Z,46.83
2019-03-31T05:38:13.566Z,44.73
2019-03-31T05:40:14.967Z,46.17
2019-03-31T05:42:16.332Z,43.30
2019-03-31T05:44:17.750Z,43.90
2019-03-31T05:46:19.103Z,46.47
2019-03-31T05:48:20.505Z,44.57
2019-03-31T05:50:21.901Z,46.60
2019-03-31T05:52:23.256Z,43.47
2019-03-31T05:54:24.615Z,44.27
2019-03-31T05:56:26.128Z,42.67
2019-03-31T05:58:27.547Z,44.57
2019-03-31T06:00:32.524Z,43.20
2019-03-31T06:02:33.886Z,41.50
2019-03-31T06:04:35.302Z,42.90
2019-03-31T06:06:37.164Z,43.00
2019-03-31T06:08:38.724Z,43.13
2019-03-31T06:10:40.127Z,47.27
2019-03-31T06:12:41.569Z,41.63
2019-03-31T06:14:42.967Z,46.10
2019-03-31T06:16:44.374Z,42.47
2019-03-31T06:18:45.745Z,41.60
2019-03-31T06:20:47.158Z,47.50
2019-03-31T06:22:48.496Z,45.93
2019-03-31T06:24:49.875Z,45.10
2019-03-31T06:26:51.272Z,41.60
2019-03-31T06:28:52.630Z,44.83
2019-03-31T06:30:54.092Z,40.50
2019-03-31T06:32:55.717Z,42.90
2019-03-31T06:34:57.169Z,43.30
2019-03-31T06:36:58.572Z,45.03
2019-03-31T06:38:59.990Z,38.90
2019-03-31T06:41:01.355Z,41.57
2019-03-31T06:43:02.938Z,43.10
2019-03-31T06:45:06.358Z,45.83
2019-03-31T06:47:07.804Z,43.67
2019-03-31T06:49:09.200Z,41.30
2019-03-31T06:51:10.778Z,45.93
2019-03-31T06:53:12.144Z,45.33
2019-03-31T06:55:13.537Z,42.30
2019-03-31T06:57:15.020Z,40.37
2019-03-31T06:59:16.424Z,39.07
2019-03-31T07:01:17.852Z,39.93
2019-03-31T07:03:19.228Z,37.30
2019-03-31T07:05:20.683Z,37.43
2019-03-31T07:07:23.826Z,38.83
2019-03-31T07:09:25.473Z,38.20
2019-03-31T07:11:26.863Z,35.83
2019-03-31T07:13:28.286Z,34.27
2019-03-31T07:15:29.648Z,35.70
2019-03-31T07:17:31.058Z,32.60
2019-03-31T07:19:32.462Z,35.10
2019-03-31T07:21:33.824Z,33.30
2019-03-31T07:23:35.243Z,35.03
2019-03-31T07:25:37.331Z,31.60
2019-03-31T07:27:38.907Z,30.10
2019-03-31T07:29:40.303Z,32.23
2019-03-31T07:31:41.655Z,31.07
2019-03-31T07:33:43.009Z,34.67
2019-03-31T07:35:44.416Z,33.47
2019-03-31T07:37:47.593Z,32.57
2019-03-31T07:39:49.276Z,32.77
2019-03-31T07:41:51.074Z,31.20
2019-03-31T07:43:52.516Z,30.90
2019-03-31T07:45:55.832Z,29.97
2019-03-31T07:47:57.162Z,29.77
2019-03-31T07:49:58.544Z,29.13
2019-03-31T07:52:00.110Z,28.97
2019-03-31T07:54:01.467Z,30.27
2019-03-31T07:56:02.828Z,28.03
2019-03-31T07:58:04.269Z,29.87
2019-03-31T08:00:16.218Z,28.83
2019-03-31T08:02:17.679Z,29.60
2019-03-31T08:04:19.083Z,28.07
2019-03-31T08:06:20.488Z,27.37
2019-03-31T08:08:21.885Z,25.67
2019-03-31T08:10:23.366Z,26.33
2019-03-31T08:12:24.783Z,25.57
2019-03-31T08:14:26.178Z,25.17
2019-03-31T08:16:27.695Z,24.90
2019-03-31T08:18:29.071Z,24.93
2019-03-31T08:20:30.436Z,26.10
2019-03-31T08:22:31.860Z,22.60
2019-03-31T08:24:42.100Z,23.90
2019-03-31T08:26:43.511Z,22.77
2019-03-31T08:28:44.916Z,21.93
2019-03-31T08:30:46.274Z,23.20
2019-03-31T08:32:47.676Z,23.60
2019-03-31T08:34:49.068Z,21.77
2019-03-31T08:36:50.447Z,22.20
2019-03-31T08:38:51.868Z,21.10
2019-03-31T08:40:53.335Z,20.90
2019-03-31T08:42:54.704Z,20.97
2019-03-31T08:44:56.118Z,20.40
2019-03-31T08:46:57.470Z,20.77
2019-03-31T08:48:58.845Z,21.70
2019-03-31T08:51:00.256Z,21.73
2019-03-31T08:53:01.618Z,19.50
2019-03-31T08:55:04.930Z,17.83
2019-03-31T08:57:06.307Z,17.30
2019-03-31T08:59:07.686Z,18.13
2019-03-31T09:01:11.007Z,18.67
2019-03-31T09:03:12.396Z,18.20
2019-03-31T09:05:14.119Z,18.30
2019-03-31T09:07:15.832Z,17.07
2019-03-31T09:09:17.192Z,17.10
2019-03-31T09:11:18.891Z,18.53
2019-03-31T09:13:20.271Z,16.90
2019-03-31T09:15:21.675Z,16.57
2019-03-31T09:17:23.098Z,15.83
2019-03-31T09:19:24.510Z,16.00
2019-03-31T09:21:25.893Z,16.47
2019-03-31T09:23:27.299Z,16.43
2019-03-31T09:25:28.692Z,15.90
2019-03-31T09:27:30.067Z,16.07
2019-03-31T09:29:31.449Z,15.43
2019-03-31T09:31:32.831Z,15.70
2019-03-31T09:33:34.252Z,15.10
2019-03-31T09:35:35.617Z,14.87
2019-03-31T09:37:37.085Z,14.50
2019-03-31T09:39:38.478Z,12.00
2019-03-31T09:41:39.836Z,13.80
2019-03-31T09:43:41.242Z,11.73
2019-03-31T09:45:42.638Z,10.60
2019-03-31T09:47:43.987Z,10.80
2019-03-31T09:49:45.381Z,10.90
2019-03-31T09:51:46.743Z,13.27
2019-03-31T09:53:48.126Z,11.60
2019-03-31T09:55:49.539Z,12.10
2019-03-31T09:57:50.928Z,12.53
2019-03-31T09:59:52.276Z,10.03
2019-03-31T10:01:53.685Z,12.40
2019-03-31T10:03:55.074Z,12.23
2019-03-31T10:06:09.944Z,11.03
2019-03-31T10:07:59.828Z,12.57
2019-03-31T10:10:02.810Z,11.50
2019-03-31T10:12:04.232Z,12.80
2019-03-31T10:14:05.587Z,12.30
2019-03-31T10:16:06.959Z,10.37
2019-03-31T10:18:08.386Z,9.17
2019-03-31T10:20:09.951Z,7.83
2019-03-31T10:22:11.318Z,8.73
2019-03-31T10:24:12.722Z,7.70
2019-03-31T10:26:16.162Z,8.20
2019-03-31T10:28:17.358Z,7.57
2019-03-31T10:30:33.510Z,8.20
2019-03-31T10:32:54.787Z,7.63
2019-03-31T10:35:36.027Z,8.07
2019-03-31T10:38:17.226Z,6.70
2019-03-31T10:40:58.380Z,8.23
2019-03-31T10:42:59.780Z,10.10
2019-03-31T10:45:21.107Z,7.73
2019-03-31T10:47:42.383Z,8.20
2019-03-31T10:50:25.485Z,8.70
2019-03-31T10:52:46.859Z,8.00
2019-03-31T10:55:08.274Z,8.40
2019-03-31T10:57:29.582Z,8.20
2019-03-31T10:59:50.831Z,6.83
2019-03-31T11:02:12.333Z,6.97
2019-03-31T11:04:33.607Z,6.20
2019-03-31T11:06:59.618Z,6.23
2019-03-31T11:09:38.001Z,6.20
2019-03-31T11:11:52.426Z,6.57
2019-03-31T11:14:13.707Z,6.20
2019-03-31T11:16:35.008Z,4.30
2019-03-31T11:18:56.291Z,4.70
2019-03-31T11:24:06.805Z,3.23
2019-03-31T11:26:28.066Z,3.80
2019-03-31T11:28:49.343Z,3.93
2019-03-31T11:31:10.649Z,3.90
2019-03-31T11:33:31.934Z,4.60
2019-03-31T11:35:53.301Z,5.17
2019-03-31T11:38:14.652Z,4.93
2019-03-31T11:40:35.925Z,5.97
2019-03-31T11:42:57.182Z,5.50
2019-03-31T11:45:18.569Z,5.40
2019-03-31T11:47:19.990Z,5.00
2019-03-31T11:49:41.235Z,4.80
2019-03-31T11:51:56.457Z,5.50
2019-03-31T11:54:17.794Z,6.43
2019-03-31T11:56:39.062Z,5.27
2019-03-31T11:58:40.419Z,5.87
2019-03-31T12:00:46.610Z,5.40
2019-03-31T12:02:47.969Z,5.70
2019-03-31T12:04:49.343Z,5.23
2019-03-31T12:06:50.721Z,5.57
2019-03-31T12:08:52.115Z,5.10
2019-03-31T12:10:53.582Z,5.67
2019-03-31T12:12:54.958Z,6.80
2019-03-31T12:15:00.733Z,6.37
2019-03-31T12:16:59.678Z,5.83
2019-03-31T12:19:01.125Z,6.37
2019-03-31T12:21:02.583Z,6.60
2019-03-31T12:23:03.959Z,6.03
2019-03-31T12:25:07.441Z,6.40
2019-03-31T12:27:08.814Z,6.07
2019-03-31T12:29:10.192Z,5.70
2019-03-31T12:31:11.568Z,5.10
2019-03-31T12:33:12.951Z,10.47
2019-03-31T12:35:14.360Z,7.97
2019-03-31T12:37:15.713Z,24.23
2019-03-31T12:39:17.126Z,29.73
2019-03-31T12:41:18.516Z,28.63
2019-03-31T12:43:19.931Z,20.00
2019-03-31T12:45:21.290Z,15.37
2019-03-31T12:47:22.642Z,9.50
2019-03-31T12:49:24.036Z,10.47
2019-03-31T12:51:25.414Z,6.87
2019-03-31T12:53:26.792Z,7.87
2019-03-31T12:55:28.195Z,12.37
2019-03-31T12:57:29.554Z,6.30
2019-03-31T12:59:30.917Z,5.43
2019-03-31T13:01:32.305Z,4.53
2019-03-31T13:03:33.703Z,5.00
2019-03-31T13:05:35.072Z,5.50
2019-03-31T13:07:36.444Z,6.00
2019-03-31T13:09:37.826Z,6.17
2019-03-31T13:11:39.235Z,5.70
2019-03-31T13:13:40.587Z,4.90
2019-03-31T13:15:41.981Z,4.83
2019-03-31T13:17:43.374Z,4.27
2019-03-31T13:19:44.745Z,3.87
2019-03-31T13:21:46.091Z,4.03
2019-03-31T13:23:47.494Z,3.73
2019-03-31T13:25:48.889Z,5.40
2019-03-31T13:27:50.245Z,4.70
2019-03-31T13:29:51.601Z,4.80
2019-03-31T13:31:52.979Z,4.60
2019-03-31T13:33:54.350Z,3.67
2019-03-31T13:35:55.746Z,3.47
2019-03-31T13:38:10.433Z,2.97
2019-03-31T13:40:00.416Z,3.00
2019-03-31T13:42:01.786Z,3.10
2019-03-31T13:44:03.313Z,3.40
2019-03-31T13:46:04.679Z,5.00
2019-03-31T13:48:06.049Z,2.93
2019-03-31T13:50:08.040Z,3.53
2019-03-31T13:52:09.435Z,3.40
2019-03-31T13:54:10.790Z,3.13
2019-03-31T13:56:12.482Z,2.47
2019-03-31T13:58:15.158Z,2.67
2019-03-31T14:00:33.554Z,2.97
2019-03-31T14:02:35.020Z,2.27
2019-03-31T14:04:50.725Z,2.23
2019-03-31T14:06:39.669Z,2.83
2019-03-31T14:08:41.053Z,2.80
2019-03-31T14:10:43.446Z,2.30
2019-03-31T14:12:44.791Z,2.33
2019-03-31T14:14:46.207Z,1.83
2019-03-31T14:16:47.549Z,1.40
2019-03-31T14:18:48.904Z,1.50
2019-03-31T14:20:50.297Z,2.00
2019-03-31T14:22:51.652Z,1.67
2019-03-31T14:24:53.019Z,1.70
2019-03-31T14:26:54.440Z,1.50
2019-03-31T14:28:55.799Z,1.80
2019-03-31T14:30:57.366Z,1.27
2019-03-31T14:32:58.730Z,1.77
2019-03-31T14:35:00.376Z,1.30
2019-03-31T14:37:01.862Z,1.60
2019-03-31T14:39:06.846Z,2.03
2019-03-31T14:41:08.454Z,1.57
2019-03-31T14:43:09.800Z,2.17
2019-03-31T14:45:30.348Z,1.57
2019-03-31T14:47:31.774Z,1.57
2019-03-31T14:49:33.140Z,1.20
2019-03-31T14:51:34.521Z,1.40
2019-03-31T14:53:35.905Z,1.13
2019-03-31T14:55:37.280Z,1.87
2019-03-31T14:57:38.699Z,2.60
2019-03-31T14:59:40.040Z,1.50
2019-03-31T15:01:41.396Z,2.57
2019-03-31T15:03:42.821Z,1.53
2019-03-31T15:05:44.194Z,2.23
2019-03-31T15:07:45.637Z,1.43
2019-03-31T15:09:47.031Z,1.47
2019-03-31T15:11:48.391Z,1.80
2019-03-31T15:13:49.749Z,2.20
2019-03-31T15:15:51.140Z,1.80
2019-03-31T15:17:52.514Z,2.20
2019-03-31T15:19:53.900Z,1.70
2019-03-31T15:21:55.289Z,1.60
2019-03-31T15:23:56.661Z,2.20
2019-03-31T15:25:57.998Z,1.90
2019-03-31T15:27:59.383Z,1.57
2019-03-31T15:30:03.234Z,1.30
2019-03-31T15:32:04.582Z,1.40
2019-03-31T15:34:06.061Z,1.43
2019-03-31T15:36:07.601Z,1.50
2019-03-31T15:38:08.984Z,1.80
2019-03-31T15:40:11.078Z,2.10
2019-03-31T15:42:12.470Z,1.70
2019-03-31T15:44:13.820Z,1.63
2019-03-31T15:46:15.245Z,1.43
2019-03-31T15:48:16.604Z,1.60
2019-03-31T15:50:18.264Z,1.60
2019-03-31T15:52:19.694Z,1.10
2019-03-31T15:54:21.067Z,2.53
2019-03-31T15:56:22.429Z,2.27
2019-03-31T15:58:23.842Z,1.63
2019-03-31T16:00:25.191Z,1.00
2019-03-31T16:02:28.562Z,1.40
2019-03-31T16:04:29.955Z,1.70
2019-03-31T16:06:31.333Z,1.10
2019-03-31T16:08:32.716Z,16.60
2019-03-31T16:10:34.219Z,1.70
2019-03-31T16:12:35.646Z,1.80
2019-03-31T16:14:37.020Z,1.90
2019-03-31T16:16:38.400Z,2.60
2019-03-31T16:18:39.784Z,2.80
2019-03-31T16:20:41.162Z,2.80
2019-03-31T16:22:42.523Z,1.40
2019-03-31T16:24:45.833Z,1.83
2019-03-31T16:26:47.180Z,1.43
2019-03-31T16:28:48.600Z,1.87
2019-03-31T16:30:49.972Z,1.47
2019-03-31T16:32:51.372Z,1.47
2019-03-31T16:34:52.765Z,1.30
2019-03-31T16:36:54.156Z,2.40
2019-03-31T16:38:55.518Z,2.20
2019-03-31T16:40:56.898Z,2.27
2019-03-31T16:42:58.291Z,1.30
2019-03-31T16:44:59.656Z,1.40
2019-03-31T16:47:01.041Z,2.43
2019-03-31T16:49:02.449Z,2.03
2019-03-31T16:51:03.815Z,3.00
2019-03-31T16:53:05.185Z,1.40
2019-03-31T16:55:06.875Z,2.97
2019-03-31T16:57:08.506Z,1.40
2019-03-31T16:59:09.920Z,2.60
2019-03-31T17:01:11.319Z,1.80
2019-03-31T17:03:12.674Z,1.40
2019-03-31T17:05:21.584Z,1.70
2019-03-31T17:07:17.620Z,2.13
2019-03-31T17:09:19.017Z,1.63
2019-03-31T17:11:20.369Z,1.93
2019-03-31T17:13:21.781Z,1.30
2019-03-31T17:15:23.131Z,1.63
2019-03-31T17:17:24.539Z,6.00
2019-03-31T17:19:25.924Z,1.97
2019-03-31T17:21:27.270Z,2.00
2019-03-31T17:23:28.651Z,1.20
2019-03-31T17:25:30.171Z,1.27
2019-03-31T17:27:31.564Z,1.50
2019-03-31T17:29:32.929Z,1.30
2019-03-31T17:31:34.278Z,1.10
2019-03-31T17:33:35.684Z,1.60
2019-03-31T17:35:37.035Z,1.30
2019-03-31T17:37:38.394Z,1.73
2019-03-31T17:39:39.801Z,2.03
2019-03-31T17:41:41.221Z,1.80
2019-03-31T17:43:42.599Z,1.60
2019-03-31T17:45:44.049Z,2.20
2019-03-31T17:47:45.437Z,3.20
2019-03-31T17:49:46.816Z,2.13
2019-03-31T17:51:48.479Z,1.70
2019-03-31T17:53:50.117Z,1.47
2019-03-31T17:55:51.499Z,1.43
2019-03-31T17:57:52.837Z,2.00
2019-03-31T17:59:54.236Z,1.57
2019-03-31T18:01:55.595Z,1.40
2019-03-31T18:03:56.976Z,1.70
2019-03-31T18:05:58.371Z,1.50
2019-03-31T18:07:59.810Z,1.07
2019-03-31T18:10:01.182Z,1.47
2019-03-31T18:12:02.560Z,1.17
2019-03-31T18:14:06.806Z,1.63
2019-03-31T18:16:07.351Z,1.37
2019-03-31T18:18:08.725Z,1.40
2019-03-31T18:20:10.246Z,1.70
2019-03-31T18:22:16.786Z,1.73
2019-03-31T18:24:14.963Z,1.50
2019-03-31T18:26:16.345Z,1.87
2019-03-31T18:28:17.675Z,2.43
2019-03-31T18:30:19.911Z,1.90
2019-03-31T18:32:21.238Z,1.70
2019-03-31T18:34:22.632Z,1.63
2019-03-31T18:36:35.929Z,1.73
2019-03-31T18:38:27.299Z,1.87
2019-03-31T18:40:35.259Z,1.47
2019-03-31T18:42:32.189Z,1.77
2019-03-31T18:44:33.558Z,2.20
2019-03-31T18:46:34.989Z,1.73
2019-03-31T18:48:36.363Z,1.67
2019-03-31T18:50:37.761Z,1.37
2019-03-31T18:52:39.204Z,2.73
2019-03-31T18:54:48.153Z,1.60
2019-03-31T18:57:03.679Z,2.47
2019-03-31T18:59:07.010Z,1.80
2019-03-31T19:01:15.965Z,1.97
2019-03-31T19:03:37.274Z,1.47
2019-03-31T19:05:52.545Z,1.73
2019-03-31T19:07:55.804Z,1.70
2019-03-31T19:10:04.989Z,1.73
2019-03-31T19:12:26.512Z,1.37
2019-03-31T19:14:30.107Z,1.37
2019-03-31T19:16:33.425Z,1.50
2019-03-31T19:18:39.579Z,1.97
2019-03-31T19:20:54.800Z,1.77
2019-03-31T19:22:58.163Z,1.80
2019-03-31T19:25:18.312Z,1.63
2019-03-31T19:27:30.505Z,1.40
2019-03-31T19:29:45.712Z,1.50
2019-03-31T19:31:51.756Z,1.90
2019-03-31T19:34:09.990Z,1.73
2019-03-31T19:36:30.144Z,1.83
2019-03-31T19:38:33.451Z,1.97
2019-03-31T19:40:45.946Z,1.87
2019-03-31T19:43:04.545Z,1.43
2019-03-31T19:45:19.880Z,2.30
2019-03-31T19:47:23.813Z,1.50
2019-03-31T19:49:36.074Z,1.57
2019-03-31T19:51:51.227Z,1.63
2019-03-31T19:54:11.375Z,1.67
2019-03-31T19:56:20.577Z,2.60
2019-03-31T19:58:40.695Z,1.77
2019-03-31T20:00:53.974Z,2.23
2019-03-31T20:02:57.291Z,1.40
2019-03-31T20:05:00.554Z,1.80
2019-03-31T20:07:04.618Z,1.60
2019-03-31T20:09:17.972Z,1.90
2019-03-31T20:11:27.119Z,1.87
2019-03-31T20:13:33.321Z,1.70
2019-03-31T20:15:42.552Z,1.63
2019-03-31T20:18:01.159Z,2.30
2019-03-31T20:20:09.579Z,2.07
2019-03-31T20:22:31.019Z,1.67
2019-03-31T20:24:34.311Z,2.00
2019-03-31T20:26:46.718Z,1.73
2019-03-31T20:28:50.016Z,1.67
2019-03-31T20:31:10.214Z,2.07
2019-03-31T20:33:22.446Z,1.67
2019-03-31T20:35:34.707Z,3.23
2019-03-31T20:37:41.560Z,2.43
2019-03-31T20:39:56.682Z,2.53
2019-03-31T20:41:55.901Z,2.00
2019-03-31T20:43:57.297Z,2.20
2019-03-31T20:45:58.687Z,2.20
2019-03-31T20:48:06.306Z,2.00
2019-03-31T20:50:07.879Z,2.07
2019-03-31T20:52:09.251Z,1.67
2019-03-31T20:54:10.727Z,2.20
2019-03-31T20:56:12.100Z,1.60
2019-03-31T20:58:13.452Z,1.77
2019-03-31T21:00:15.153Z,2.03
2019-03-31T21:02:16.533Z,2.17
2019-03-31T21:04:17.926Z,2.37
2019-03-31T21:06:19.306Z,2.93
2019-03-31T21:08:20.680Z,2.20
2019-03-31T21:10:22.046Z,2.30
2019-03-31T21:12:23.417Z,2.30
2019-03-31T21:14:24.817Z,1.97
2019-03-31T21:16:26.576Z,1.87
2019-03-31T21:18:27.944Z,2.50
2019-03-31T21:20:29.325Z,2.03
2019-03-31T21:22:30.683Z,3.20
2019-03-31T21:24:32.047Z,2.07
2019-03-31T21:26:33.463Z,1.98
2019-03-31T21:28:34.864Z,2.00
2019-03-31T21:30:36.975Z,2.07
2019-03-31T21:32:38.593Z,1.70
2019-03-31T21:34:40.186Z,2.50
2019-03-31T21:36:41.548Z,1.97
2019-03-31T21:38:42.949Z,1.92
2019-03-31T21:40:44.356Z,2.20
2019-03-31T21:42:45.726Z,1.90
2019-03-31T21:44:47.136Z,2.33
2019-03-31T21:46:48.527Z,1.87
2019-03-31T21:48:49.919Z,2.87
2019-03-31T21:50:51.282Z,2.10
2019-03-31T21:52:52.650Z,2.30
2019-03-31T21:54:54.036Z,2.00
2019-03-31T21:56:55.437Z,2.35
2019-03-31T21:58:56.792Z,1.87
2019-03-31T22:00:58.571Z,2.90
2019-03-31T22:02:59.973Z,2.57
2019-03-31T22:05:01.939Z,1.83
2019-03-31T22:07:03.427Z,2.15
2019-03-31T22:09:07.297Z,2.90
2019-03-31T22:11:08.683Z,1.80
2019-03-31T22:13:10.056Z,2.15
2019-03-31T22:15:11.618Z,1.75
2019-03-31T22:17:13.020Z,1.97
2019-03-31T22:19:14.378Z,2.52
2019-03-31T22:21:15.774Z,2.40
2019-03-31T22:23:17.172Z,2.43
2019-03-31T22:25:18.574Z,2.85
2019-03-31T22:27:19.933Z,2.45
2019-03-31T22:29:21.336Z,2.72
2019-03-31T22:31:22.694Z,2.75
2019-03-31T22:33:24.274Z,2.33
2019-03-31T22:35:25.638Z,3.00
2019-03-31T22:37:27.040Z,1.80
2019-03-31T22:39:28.489Z,3.10
2019-03-31T22:41:29.861Z,1.92
2019-03-31T22:43:31.238Z,3.10
2019-03-31T22:45:32.647Z,3.12
2019-03-31T22:47:34.004Z,3.65
2019-03-31T22:49:35.391Z,2.20
2019-03-31T22:51:36.755Z,2.40
2019-03-31T22:53:38.167Z,2.65
2019-03-31T22:55:39.606Z,2.30
2019-03-31T22:57:40.971Z,2.77
2019-03-31T22:59:42.342Z,2.40
2019-03-31T23:01:43.755Z,3.22
2019-03-31T23:03:45.118Z,2.42
2019-03-31T23:05:46.481Z,2.55
2019-03-31T23:07:47.920Z,4.08
2019-03-31T23:09:49.282Z,2.12
2019-03-31T23:11:50.746Z,2.10
2019-03-31T23:13:52.147Z,1.92
2019-03-31T23:15:53.650Z,2.60
2019-03-31T23:17:55.009Z,2.70
2019-03-31T23:19:56.403Z,1.85
2019-03-31T23:21:57.759Z,1.90
2019-03-31T23:23:59.131Z,2.20
2019-03-31T23:26:00.513Z,2.42
2019-03-31T23:28:01.903Z,2.40
2019-03-31T23:30:07.761Z,2.37
2019-03-31T23:32:09.166Z,2.22
2019-03-31T23:34:10.539Z,2.62
2019-03-31T23:36:11.930Z,2.02
2019-03-31T23:38:13.281Z,2.30
2019-03-31T23:40:14.868Z,2.40
2019-03-31T23:42:16.252Z,2.08
2019-03-31T23:44:17.617Z,2.37
2019-03-31T23:46:19.029Z,2.52
2019-03-31T23:48:20.419Z,2.85
2019-03-31T23:50:21.794Z,3.25
2019-03-31T23:52:23.165Z,2.22
2019-03-31T23:54:24.585Z,2.40
2019-03-31T23:56:25.987Z,2.58
2019-03-31T23:58:27.347Z,2.60
